sensor_id;sensor_type;location;lat;lon;timestamp;temperature;humidity
6054;DHT22;3055;50.886;14.814;2022-07-21T00:00:18;19.20;1.00
6054;DHT22;3055;50.886;14.814;2022-07-21T00:02:46;19.30;1.00
6054;DHT22;3055;50.886;14.814;2022-07-21T00:05:13;19.30;99.90
6054;DHT22;3055;50.886;14.814;2022-07-21T00:07:40;19.30;99.90
6054;DHT22;3055;50.886;14.814;2022-07-21T00:10:08;19.20;99.90
6054;DHT22;3055;50.886;14.814;2022-07-21T00:12:35;19.00;1.00
6054;DHT22;3055;50.886;14.814;2022-07-21T00:15:04;18.80;1.00
6054;DHT22;3055;50.886;14.814;2022-07-21T00:17:32;18.60;1.00
6054;DHT22;3055;50.886;14.814;2022-07-21T00:20:00;18.60;1.00
6054;DHT22;3055;50.886;14.814;2022-07-21T00:22:27;18.40;1.00
6054;DHT22;3055;50.886;14.814;2022-07-21T00:24:54;18.30;1.00
6054;DHT22;3055;50.886;14.814;2022-07-21T00:27:21;18.10;1.00
6054;DHT22;3055;50.886;14.814;2022-07-21T00:29:48;18.10;3.20
6054;DHT22;3055;50.886;14.814;2022-07-21T00:32:15;18.20;1.00
6054;DHT22;3055;50.886;14.814;2022-07-21T00:34:43;18.10;1.00
6054;DHT22;3055;50.886;14.814;2022-07-21T00:37:10;18.00;1.00
6054;DHT22;3055;50.886;14.814;2022-07-21T00:39:37;17.90;10.40
6054;DHT22;3055;50.886;14.814;2022-07-21T00:42:05;17.90;1.00
6054;DHT22;3055;50.886;14.814;2022-07-21T00:44:32;17.90;24.90
6054;DHT22;3055;50.886;14.814;2022-07-21T00:46:59;18.00;18.80
6054;DHT22;3055;50.886;14.814;2022-07-21T00:49:26;18.00;15.90
6054;DHT22;3055;50.886;14.814;2022-07-21T00:51:54;18.00;3.60
6054;DHT22;3055;50.886;14.814;2022-07-21T00:54:21;18.00;1.00
6054;DHT22;3055;50.886;14.814;2022-07-21T00:56:48;18.10;1.00
6054;DHT22;3055;50.886;14.814;2022-07-21T00:59:15;18.10;1.00
6054;DHT22;3055;50.886;14.814;2022-07-21T01:01:42;18.00;3.40
6054;DHT22;3055;50.886;14.814;2022-07-21T01:04:09;18.00;8.80
6054;DHT22;3055;50.886;14.814;2022-07-21T01:06:36;18.00;11.70
6054;DHT22;3055;50.886;14.814;2022-07-21T01:09:05;18.20;8.40
6054;DHT22;3055;50.886;14.814;2022-07-21T01:11:32;18.30;15.30
6054;DHT22;3055;50.886;14.814;2022-07-21T01:13:59;18.30;1.00
6054;DHT22;3055;50.886;14.814;2022-07-21T01:16:26;18.30;1.00
6054;DHT22;3055;50.886;14.814;2022-07-21T01:18:54;18.20;1.00
6054;DHT22;3055;50.886;14.814;2022-07-21T01:21:30;18.10;1.00
6054;DHT22;3055;50.886;14.814;2022-07-21T01:23:57;17.80;2.50
6054;DHT22;3055;50.886;14.814;2022-07-21T01:26:25;17.80;1.00
6054;DHT22;3055;50.886;14.814;2022-07-21T01:28:52;17.80;1.00
6054;DHT22;3055;50.886;14.814;2022-07-21T01:31:19;17.70;10.40
6054;DHT22;3055;50.886;14.814;2022-07-21T01:33:47;17.70;36.90
6054;DHT22;3055;50.886;14.814;2022-07-21T01:36:14;17.60;44.30
6054;DHT22;3055;50.886;14.814;2022-07-21T01:38:42;17.50;48.50
6054;DHT22;3055;50.886;14.814;2022-07-21T01:41:27;17.40;69.00
6054;DHT22;3055;50.886;14.814;2022-07-21T01:43:59;17.40;93.00
6054;DHT22;3055;50.886;14.814;2022-07-21T01:46:28;17.40;93.00
6054;DHT22;3055;50.886;14.814;2022-07-21T01:48:55;17.40;99.90
6054;DHT22;3055;50.886;14.814;2022-07-21T01:51:23;17.30;98.10
6054;DHT22;3055;50.886;14.814;2022-07-21T01:53:51;17.40;94.80
6054;DHT22;3055;50.886;14.814;2022-07-21T01:56:19;17.30;95.20
6054;DHT22;3055;50.886;14.814;2022-07-21T01:58:48;17.30;99.90
6054;DHT22;3055;50.886;14.814;2022-07-21T02:01:15;17.30;98.80
6054;DHT22;3055;50.886;14.814;2022-07-21T02:03:42;17.40;95.20
6054;DHT22;3055;50.886;14.814;2022-07-21T02:06:09;17.40;94.50
6054;DHT22;3055;50.886;14.814;2022-07-21T02:08:36;17.30;99.90
6054;DHT22;3055;50.886;14.814;2022-07-21T02:11:05;17.30;99.90
6054;DHT22;3055;50.886;14.814;2022-07-21T02:13:32;17.20;99.90
6054;DHT22;3055;50.886;14.814;2022-07-21T02:15:59;17.20;99.90
6054;DHT22;3055;50.886;14.814;2022-07-21T02:18:26;17.20;99.90
6054;DHT22;3055;50.886;14.814;2022-07-21T02:20:53;17.30;99.90
6054;DHT22;3055;50.886;14.814;2022-07-21T02:23:21;17.20;99.90
6054;DHT22;3055;50.886;14.814;2022-07-21T02:25:48;17.20;99.90
6054;DHT22;3055;50.886;14.814;2022-07-21T02:28:17;17.20;99.90
6054;DHT22;3055;50.886;14.814;2022-07-21T02:30:44;17.20;99.90
6054;DHT22;3055;50.886;14.814;2022-07-21T02:33:11;17.20;99.90
6054;DHT22;3055;50.886;14.814;2022-07-21T02:35:38;17.30;99.90
6054;DHT22;3055;50.886;14.814;2022-07-21T02:38:06;17.40;99.90
6054;DHT22;3055;50.886;14.814;2022-07-21T02:40:33;17.40;99.90
6054;DHT22;3055;50.886;14.814;2022-07-21T02:43:00;17.30;99.90
6054;DHT22;3055;50.886;14.814;2022-07-21T02:45:28;17.20;99.90
6054;DHT22;3055;50.886;14.814;2022-07-21T02:47:57;17.20;99.90
6054;DHT22;3055;50.886;14.814;2022-07-21T02:50:28;17.40;99.90
6054;DHT22;3055;50.886;14.814;2022-07-21T02:52:56;17.40;99.90
6054;DHT22;3055;50.886;14.814;2022-07-21T02:55:23;17.40;99.90
6054;DHT22;3055;50.886;14.814;2022-07-21T02:58:03;17.50;99.90
6054;DHT22;3055;50.886;14.814;2022-07-21T03:00:31;17.70;99.90
6054;DHT22;3055;50.886;14.814;2022-07-21T03:02:58;17.70;99.90
6054;DHT22;3055;50.886;14.814;2022-07-21T03:05:25;17.60;92.10
6054;DHT22;3055;50.886;14.814;2022-07-21T03:07:52;17.60;97.40
6054;DHT22;3055;50.886;14.814;2022-07-21T03:10:19;17.60;85.40
6054;DHT22;3055;50.886;14.814;2022-07-21T03:12:46;17.60;43.10
6054;DHT22;3055;50.886;14.814;2022-07-21T03:15:13;17.60;28.10
6054;DHT22;3055;50.886;14.814;2022-07-21T03:17:41;17.60;39.90
6054;DHT22;3055;50.886;14.814;2022-07-21T03:20:10;17.60;41.60
6054;DHT22;3055;50.886;14.814;2022-07-21T03:22:37;17.40;54.20
6054;DHT22;3055;50.886;14.814;2022-07-21T03:25:05;17.40;74.10
6054;DHT22;3055;50.886;14.814;2022-07-21T03:27:33;17.40;79.10
6054;DHT22;3055;50.886;14.814;2022-07-21T03:30:06;17.40;94.70
6054;DHT22;3055;50.886;14.814;2022-07-21T03:32:35;17.40;75.00
6054;DHT22;3055;50.886;14.814;2022-07-21T03:35:05;17.40;74.50
6054;DHT22;3055;50.886;14.814;2022-07-21T03:37:33;17.70;32.50
6054;DHT22;3055;50.886;14.814;2022-07-21T03:40:07;17.80;18.00
6054;DHT22;3055;50.886;14.814;2022-07-21T03:42:34;17.80;14.50
6054;DHT22;3055;50.886;14.814;2022-07-21T03:45:02;17.80;18.00
6054;DHT22;3055;50.886;14.814;2022-07-21T03:47:29;17.70;36.00
6054;DHT22;3055;50.886;14.814;2022-07-21T03:49:56;17.90;34.50
6054;DHT22;3055;50.886;14.814;2022-07-21T03:52:24;18.00;31.30
6054;DHT22;3055;50.886;14.814;2022-07-21T03:54:51;18.10;16.00
6054;DHT22;3055;50.886;14.814;2022-07-21T03:57:34;18.20;8.40
6054;DHT22;3055;50.886;14.814;2022-07-21T04:00:01;18.30;1.00
6054;DHT22;3055;50.886;14.814;2022-07-21T04:02:28;18.50;6.20
6054;DHT22;3055;50.886;14.814;2022-07-21T04:04:55;18.70;1.00
6054;DHT22;3055;50.886;14.814;2022-07-21T04:07:24;18.90;1.00
6054;DHT22;3055;50.886;14.814;2022-07-21T04:09:50;19.00;1.00
6054;DHT22;3055;50.886;14.814;2022-07-21T04:12:17;19.20;1.00
6054;DHT22;3055;50.886;14.814;2022-07-21T04:14:44;19.30;1.00
6054;DHT22;3055;50.886;14.814;2022-07-21T04:17:11;19.50;1.00
6054;DHT22;3055;50.886;14.814;2022-07-21T04:19:38;19.60;1.00
6054;DHT22;3055;50.886;14.814;2022-07-21T04:22:05;19.80;99.90
6054;DHT22;3055;50.886;14.814;2022-07-21T04:24:33;19.70;1.00
6054;DHT22;3055;50.886;14.814;2022-07-21T04:27:00;19.80;1.00
6054;DHT22;3055;50.886;14.814;2022-07-21T04:29:27;19.80;1.00
6054;DHT22;3055;50.886;14.814;2022-07-21T04:31:55;19.80;1.00
6054;DHT22;3055;50.886;14.814;2022-07-21T04:34:22;19.90;99.90
6054;DHT22;3055;50.886;14.814;2022-07-21T04:36:49;20.00;99.90
6054;DHT22;3055;50.886;14.814;2022-07-21T04:39:16;20.10;99.90
6054;DHT22;3055;50.886;14.814;2022-07-21T04:41:44;20.20;99.90
6054;DHT22;3055;50.886;14.814;2022-07-21T04:44:11;20.30;99.90
6054;DHT22;3055;50.886;14.814;2022-07-21T04:46:38;20.40;1.00
6054;DHT22;3055;50.886;14.814;2022-07-21T04:49:04;20.50;16.70
6054;DHT22;3055;50.886;14.814;2022-07-21T04:51:32;20.50;99.90
6054;DHT22;3055;50.886;14.814;2022-07-21T04:53:59;20.60;99.90
6054;DHT22;3055;50.886;14.814;2022-07-21T04:56:26;20.70;99.90
6054;DHT22;3055;50.886;14.814;2022-07-21T04:58:54;20.70;1.00
6054;DHT22;3055;50.886;14.814;2022-07-21T05:01:21;20.80;1.00
6054;DHT22;3055;50.886;14.814;2022-07-21T05:03:48;20.90;1.00
6054;DHT22;3055;50.886;14.814;2022-07-21T05:06:15;20.90;99.90
6054;DHT22;3055;50.886;14.814;2022-07-21T05:08:42;20.90;99.90
6054;DHT22;3055;50.886;14.814;2022-07-21T05:11:09;21.00;28.60
6054;DHT22;3055;50.886;14.814;2022-07-21T05:13:36;21.20;1.00
6054;DHT22;3055;50.886;14.814;2022-07-21T05:16:05;21.40;1.00
6054;DHT22;3055;50.886;14.814;2022-07-21T05:18:32;21.60;1.00
6054;DHT22;3055;50.886;14.814;2022-07-21T05:20:59;21.80;99.90
6054;DHT22;3055;50.886;14.814;2022-07-21T05:23:26;21.90;99.90
6054;DHT22;3055;50.886;14.814;2022-07-21T05:25:53;22.00;99.90
6054;DHT22;3055;50.886;14.814;2022-07-21T05:28:20;22.10;99.90
6054;DHT22;3055;50.886;14.814;2022-07-21T05:30:47;22.20;99.90
6054;DHT22;3055;50.886;14.814;2022-07-21T05:33:15;22.20;99.90
6054;DHT22;3055;50.886;14.814;2022-07-21T05:35:42;22.30;99.90
6054;DHT22;3055;50.886;14.814;2022-07-21T05:38:09;22.40;99.90
6054;DHT22;3055;50.886;14.814;2022-07-21T05:40:36;22.50;99.90
6054;DHT22;3055;50.886;14.814;2022-07-21T05:43:03;22.50;99.90
6054;DHT22;3055;50.886;14.814;2022-07-21T05:45:30;22.60;99.90
6054;DHT22;3055;50.886;14.814;2022-07-21T05:47:57;22.60;99.90
6054;DHT22;3055;50.886;14.814;2022-07-21T05:50:25;22.60;99.90
6054;DHT22;3055;50.886;14.814;2022-07-21T05:52:52;22.70;91.80
6054;DHT22;3055;50.886;14.814;2022-07-21T05:55:19;22.70;84.20
6054;DHT22;3055;50.886;14.814;2022-07-21T05:57:46;22.70;70.30
6054;DHT22;3055;50.886;14.814;2022-07-21T06:00:13;22.70;70.70
6054;DHT22;3055;50.886;14.814;2022-07-21T06:02:40;22.80;82.60
6054;DHT22;3055;50.886;14.814;2022-07-21T06:05:08;22.80;99.90
6054;DHT22;3055;50.886;14.814;2022-07-21T06:07:38;22.90;99.90
6054;DHT22;3055;50.886;14.814;2022-07-21T06:10:05;23.10;66.60
6054;DHT22;3055;50.886;14.814;2022-07-21T06:12:32;23.30;57.10
6054;DHT22;3055;50.886;14.814;2022-07-21T06:15:09;23.50;56.70
6054;DHT22;3055;50.886;14.814;2022-07-21T06:17:39;23.70;59.20
6054;DHT22;3055;50.886;14.814;2022-07-21T06:20:07;24.00;38.80
6054;DHT22;3055;50.886;14.814;2022-07-21T06:22:35;24.30;38.10
6054;DHT22;3055;50.886;14.814;2022-07-21T06:25:03;24.40;30.20
6054;DHT22;3055;50.886;14.814;2022-07-21T06:27:30;24.60;34.80
6054;DHT22;3055;50.886;14.814;2022-07-21T06:29:58;24.70;20.40
6054;DHT22;3055;50.886;14.814;2022-07-21T06:32:26;24.90;18.10
6054;DHT22;3055;50.886;14.814;2022-07-21T06:34:53;25.10;1.00
6054;DHT22;3055;50.886;14.814;2022-07-21T06:37:21;25.40;3.50
6054;DHT22;3055;50.886;14.814;2022-07-21T06:39:48;25.60;1.00
6054;DHT22;3055;50.886;14.814;2022-07-21T06:42:15;25.90;1.00
6054;DHT22;3055;50.886;14.814;2022-07-21T06:44:42;26.20;1.00
6054;DHT22;3055;50.886;14.814;2022-07-21T06:47:09;26.30;1.00
6054;DHT22;3055;50.886;14.814;2022-07-21T06:49:37;26.50;1.00
6054;DHT22;3055;50.886;14.814;2022-07-21T06:52:05;26.50;1.00
6054;DHT22;3055;50.886;14.814;2022-07-21T06:54:32;26.70;1.00
6054;DHT22;3055;50.886;14.814;2022-07-21T06:56:59;26.90;1.00
6054;DHT22;3055;50.886;14.814;2022-07-21T06:59:25;27.00;1.00
6054;DHT22;3055;50.886;14.814;2022-07-21T07:01:52;27.20;1.00
6054;DHT22;3055;50.886;14.814;2022-07-21T07:04:19;27.40;1.00
6054;DHT22;3055;50.886;14.814;2022-07-21T07:06:48;27.60;1.00
6054;DHT22;3055;50.886;14.814;2022-07-21T07:09:17;27.90;1.00
6054;DHT22;3055;50.886;14.814;2022-07-21T07:11:44;28.00;1.00
6054;DHT22;3055;50.886;14.814;2022-07-21T07:14:13;28.10;1.00
6054;DHT22;3055;50.886;14.814;2022-07-21T07:16:40;28.10;1.00
6054;DHT22;3055;50.886;14.814;2022-07-21T07:19:07;28.10;1.00
6054;DHT22;3055;50.886;14.814;2022-07-21T07:21:34;28.20;1.00
6054;DHT22;3055;50.886;14.814;2022-07-21T07:24:03;28.40;1.00
6054;DHT22;3055;50.886;14.814;2022-07-21T07:26:30;28.60;1.00
6054;DHT22;3055;50.886;14.814;2022-07-21T07:28:57;28.70;1.00
6054;DHT22;3055;50.886;14.814;2022-07-21T07:31:24;28.90;1.00
6054;DHT22;3055;50.886;14.814;2022-07-21T07:33:51;29.10;1.00
6054;DHT22;3055;50.886;14.814;2022-07-21T07:36:18;29.20;1.00
6054;DHT22;3055;50.886;14.814;2022-07-21T07:38:45;29.40;1.00
6054;DHT22;3055;50.886;14.814;2022-07-21T07:41:15;29.50;1.00
6054;DHT22;3055;50.886;14.814;2022-07-21T07:43:42;29.40;1.00
6054;DHT22;3055;50.886;14.814;2022-07-21T07:46:08;29.40;1.00
6054;DHT22;3055;50.886;14.814;2022-07-21T07:48:36;29.40;1.00
6054;DHT22;3055;50.886;14.814;2022-07-21T07:51:04;29.30;1.00
6054;DHT22;3055;50.886;14.814;2022-07-21T07:53:31;29.40;1.00
6054;DHT22;3055;50.886;14.814;2022-07-21T07:55:58;29.60;1.00
6054;DHT22;3055;50.886;14.814;2022-07-21T07:58:26;29.60;1.00
6054;DHT22;3055;50.886;14.814;2022-07-21T08:00:53;29.70;1.00
6054;DHT22;3055;50.886;14.814;2022-07-21T08:03:22;29.80;1.00
6054;DHT22;3055;50.886;14.814;2022-07-21T08:05:49;30.00;1.00
6054;DHT22;3055;50.886;14.814;2022-07-21T08:08:16;30.10;1.00
6054;DHT22;3055;50.886;14.814;2022-07-21T08:10:43;30.20;1.00
6054;DHT22;3055;50.886;14.814;2022-07-21T08:13:12;30.30;1.00
6054;DHT22;3055;50.886;14.814;2022-07-21T08:15:42;30.40;1.00
6054;DHT22;3055;50.886;14.814;2022-07-21T08:18:09;30.60;1.00
6054;DHT22;3055;50.886;14.814;2022-07-21T08:20:37;30.70;1.00
6054;DHT22;3055;50.886;14.814;2022-07-21T08:23:04;30.70;1.00
6054;DHT22;3055;50.886;14.814;2022-07-21T08:25:32;30.80;1.00
6054;DHT22;3055;50.886;14.814;2022-07-21T08:27:59;31.00;1.00
6054;DHT22;3055;50.886;14.814;2022-07-21T08:30:26;31.10;1.00
6054;DHT22;3055;50.886;14.814;2022-07-21T08:32:54;31.30;1.00
6054;DHT22;3055;50.886;14.814;2022-07-21T08:35:21;31.30;1.00
6054;DHT22;3055;50.886;14.814;2022-07-21T08:37:54;31.40;1.00
6054;DHT22;3055;50.886;14.814;2022-07-21T08:40:23;31.50;1.00
6054;DHT22;3055;50.886;14.814;2022-07-21T08:42:51;31.50;1.00
6054;DHT22;3055;50.886;14.814;2022-07-21T08:45:18;31.50;1.00
6054;DHT22;3055;50.886;14.814;2022-07-21T08:47:46;31.40;1.00
6054;DHT22;3055;50.886;14.814;2022-07-21T08:50:14;31.60;1.00
6054;DHT22;3055;50.886;14.814;2022-07-21T08:52:42;31.70;1.00
6054;DHT22;3055;50.886;14.814;2022-07-21T08:55:09;31.90;1.00
6054;DHT22;3055;50.886;14.814;2022-07-21T08:57:38;32.00;1.00
6054;DHT22;3055;50.886;14.814;2022-07-21T09:00:07;32.10;1.00
6054;DHT22;3055;50.886;14.814;2022-07-21T09:02:35;32.20;1.00
6054;DHT22;3055;50.886;14.814;2022-07-21T09:05:04;32.30;1.00
6054;DHT22;3055;50.886;14.814;2022-07-21T09:07:46;32.10;1.00
6054;DHT22;3055;50.886;14.814;2022-07-21T09:10:14;31.90;1.00
6054;DHT22;3055;50.886;14.814;2022-07-21T09:12:49;32.10;1.00
6054;DHT22;3055;50.886;14.814;2022-07-21T09:15:17;32.20;1.00
6054;DHT22;3055;50.886;14.814;2022-07-21T09:17:45;32.20;1.00
6054;DHT22;3055;50.886;14.814;2022-07-21T09:20:23;32.30;1.00
6054;DHT22;3055;50.886;14.814;2022-07-21T09:23:09;32.40;1.00
6054;DHT22;3055;50.886;14.814;2022-07-21T09:25:38;32.50;1.00
6054;DHT22;3055;50.886;14.814;2022-07-21T09:28:08;32.40;1.00
6054;DHT22;3055;50.886;14.814;2022-07-21T09:30:48;32.40;1.00
6054;DHT22;3055;50.886;14.814;2022-07-21T09:33:27;32.30;1.00
6054;DHT22;3055;50.886;14.814;2022-07-21T09:36:05;32.40;1.00
6054;DHT22;3055;50.886;14.814;2022-07-21T09:38:37;32.60;1.00
6054;DHT22;3055;50.886;14.814;2022-07-21T09:41:06;32.70;1.00
6054;DHT22;3055;50.886;14.814;2022-07-21T09:43:36;32.90;1.00
6054;DHT22;3055;50.886;14.814;2022-07-21T09:46:09;33.00;1.00
6054;DHT22;3055;50.886;14.814;2022-07-21T09:48:38;33.00;1.00
6054;DHT22;3055;50.886;14.814;2022-07-21T09:51:22;33.20;1.00
6054;DHT22;3055;50.886;14.814;2022-07-21T09:53:54;33.20;1.00
6054;DHT22;3055;50.886;14.814;2022-07-21T09:56:21;33.30;1.00
6054;DHT22;3055;50.886;14.814;2022-07-21T09:58:50;33.20;1.00
6054;DHT22;3055;50.886;14.814;2022-07-21T10:01:18;33.20;1.00
6054;DHT22;3055;50.886;14.814;2022-07-21T10:03:46;33.30;1.00
6054;DHT22;3055;50.886;14.814;2022-07-21T10:06:15;33.30;1.00
6054;DHT22;3055;50.886;14.814;2022-07-21T10:08:43;33.30;1.00
6054;DHT22;3055;50.886;14.814;2022-07-21T10:11:12;33.30;1.00
6054;DHT22;3055;50.886;14.814;2022-07-21T10:13:40;33.40;1.00
6054;DHT22;3055;50.886;14.814;2022-07-21T10:16:09;33.40;1.00
6054;DHT22;3055;50.886;14.814;2022-07-21T10:18:42;33.30;1.00
6054;DHT22;3055;50.886;14.814;2022-07-21T10:21:18;33.40;1.00
6054;DHT22;3055;50.886;14.814;2022-07-21T10:23:50;33.60;1.00
6054;DHT22;3055;50.886;14.814;2022-07-21T10:26:20;33.70;1.00
6054;DHT22;3055;50.886;14.814;2022-07-21T10:28:47;33.60;1.00
6054;DHT22;3055;50.886;14.814;2022-07-21T10:31:17;33.70;1.00
6054;DHT22;3055;50.886;14.814;2022-07-21T10:33:59;34.00;1.00
6054;DHT22;3055;50.886;14.814;2022-07-21T10:36:45;34.20;1.00
6054;DHT22;3055;50.886;14.814;2022-07-21T10:39:27;34.30;1.00
6054;DHT22;3055;50.886;14.814;2022-07-21T10:41:58;34.40;1.00
6054;DHT22;3055;50.886;14.814;2022-07-21T10:44:47;34.40;1.00
6054;DHT22;3055;50.886;14.814;2022-07-21T10:47:15;34.40;1.00
6054;DHT22;3055;50.886;14.814;2022-07-21T10:49:50;34.40;1.00
6054;DHT22;3055;50.886;14.814;2022-07-21T10:52:55;34.50;1.00
6054;DHT22;3055;50.886;14.814;2022-07-21T10:55:23;34.50;1.00
6054;DHT22;3055;50.886;14.814;2022-07-21T10:58:17;34.60;1.00
6054;DHT22;3055;50.886;14.814;2022-07-21T11:00:50;34.60;1.00
6054;DHT22;3055;50.886;14.814;2022-07-21T11:03:20;34.50;1.00
6054;DHT22;3055;50.886;14.814;2022-07-21T11:06:11;34.40;1.00
6054;DHT22;3055;50.886;14.814;2022-07-21T11:08:40;34.50;1.00
6054;DHT22;3055;50.886;14.814;2022-07-21T11:11:08;34.50;1.00
6054;DHT22;3055;50.886;14.814;2022-07-21T11:13:58;34.70;1.00
6054;DHT22;3055;50.886;14.814;2022-07-21T11:19:39;34.80;1.00
6054;DHT22;3055;50.886;14.814;2022-07-21T11:22:10;34.80;99.90
6054;DHT22;3055;50.886;14.814;2022-07-21T11:24:38;34.80;99.90
6054;DHT22;3055;50.886;14.814;2022-07-21T11:27:08;35.00;1.00
6054;DHT22;3055;50.886;14.814;2022-07-21T11:29:39;35.30;99.90
6054;DHT22;3055;50.886;14.814;2022-07-21T11:32:07;35.40;99.90
6054;DHT22;3055;50.886;14.814;2022-07-21T11:34:43;35.60;99.90
6054;DHT22;3055;50.886;14.814;2022-07-21T11:37:12;35.80;99.90
6054;DHT22;3055;50.886;14.814;2022-07-21T11:39:39;35.90;99.90
6054;DHT22;3055;50.886;14.814;2022-07-21T11:42:09;35.90;99.90
6054;DHT22;3055;50.886;14.814;2022-07-21T11:44:39;35.70;99.90
6054;DHT22;3055;50.886;14.814;2022-07-21T11:47:09;35.80;99.90
6054;DHT22;3055;50.886;14.814;2022-07-21T11:49:37;35.50;99.90
6054;DHT22;3055;50.886;14.814;2022-07-21T11:52:07;35.20;99.90
6054;DHT22;3055;50.886;14.814;2022-07-21T11:54:36;35.10;99.90
6054;DHT22;3055;50.886;14.814;2022-07-21T11:57:05;35.20;99.90
6054;DHT22;3055;50.886;14.814;2022-07-21T11:59:34;35.50;99.90
6054;DHT22;3055;50.886;14.814;2022-07-21T12:02:06;35.90;99.90
6054;DHT22;3055;50.886;14.814;2022-07-21T12:04:39;36.30;99.90
6054;DHT22;3055;50.886;14.814;2022-07-21T12:07:11;36.40;99.90
6054;DHT22;3055;50.886;14.814;2022-07-21T12:09:39;36.60;99.90
6054;DHT22;3055;50.886;14.814;2022-07-21T12:12:07;36.70;99.90
6054;DHT22;3055;50.886;14.814;2022-07-21T12:14:55;36.60;99.90
6054;DHT22;3055;50.886;14.814;2022-07-21T12:17:35;36.60;99.90
6054;DHT22;3055;50.886;14.814;2022-07-21T12:20:04;36.50;99.90
6054;DHT22;3055;50.886;14.814;2022-07-21T12:22:36;36.60;99.90
6054;DHT22;3055;50.886;14.814;2022-07-21T12:25:04;36.50;99.90
6054;DHT22;3055;50.886;14.814;2022-07-21T12:27:35;35.80;99.90
6054;DHT22;3055;50.886;14.814;2022-07-21T12:30:03;35.70;99.90
6054;DHT22;3055;50.886;14.814;2022-07-21T12:32:48;35.50;99.90
6054;DHT22;3055;50.886;14.814;2022-07-21T12:35:23;35.50;99.90
6054;DHT22;3055;50.886;14.814;2022-07-21T12:37:56;35.90;99.90
6054;DHT22;3055;50.886;14.814;2022-07-21T12:40:24;36.20;99.90
6054;DHT22;3055;50.886;14.814;2022-07-21T12:43:03;36.40;99.90
6054;DHT22;3055;50.886;14.814;2022-07-21T12:45:30;36.50;99.90
6054;DHT22;3055;50.886;14.814;2022-07-21T12:48:08;36.60;99.90
6054;DHT22;3055;50.886;14.814;2022-07-21T12:50:36;36.60;99.90
6054;DHT22;3055;50.886;14.814;2022-07-21T12:53:04;36.50;99.90
6054;DHT22;3055;50.886;14.814;2022-07-21T12:55:31;36.40;99.90
6054;DHT22;3055;50.886;14.814;2022-07-21T12:57:59;36.60;99.90
6054;DHT22;3055;50.886;14.814;2022-07-21T13:00:26;36.70;99.90
6054;DHT22;3055;50.886;14.814;2022-07-21T13:02:54;36.90;99.90
6054;DHT22;3055;50.886;14.814;2022-07-21T13:05:25;37.00;99.90
6054;DHT22;3055;50.886;14.814;2022-07-21T13:07:52;36.90;99.90
6054;DHT22;3055;50.886;14.814;2022-07-21T13:10:19;36.70;99.90
6054;DHT22;3055;50.886;14.814;2022-07-21T13:12:47;36.40;99.90
6054;DHT22;3055;50.886;14.814;2022-07-21T13:15:14;36.20;99.90
6054;DHT22;3055;50.886;14.814;2022-07-21T13:17:41;36.10;99.90
6054;DHT22;3055;50.886;14.814;2022-07-21T13:20:10;36.10;99.90
6054;DHT22;3055;50.886;14.814;2022-07-21T13:22:39;36.00;99.90
6054;DHT22;3055;50.886;14.814;2022-07-21T13:25:08;36.00;99.90
6054;DHT22;3055;50.886;14.814;2022-07-21T13:27:35;35.30;99.90
6054;DHT22;3055;50.886;14.814;2022-07-21T13:30:04;34.90;99.90
6054;DHT22;3055;50.886;14.814;2022-07-21T13:32:32;34.80;99.90
6054;DHT22;3055;50.886;14.814;2022-07-21T13:34:59;34.60;99.90
6054;DHT22;3055;50.886;14.814;2022-07-21T13:37:26;34.60;99.90
6054;DHT22;3055;50.886;14.814;2022-07-21T13:39:55;34.50;99.90
6054;DHT22;3055;50.886;14.814;2022-07-21T13:42:22;34.30;99.90
6054;DHT22;3055;50.886;14.814;2022-07-21T13:44:49;34.10;99.90
6054;DHT22;3055;50.886;14.814;2022-07-21T13:47:16;33.80;99.90
6054;DHT22;3055;50.886;14.814;2022-07-21T13:49:43;33.60;99.90
6054;DHT22;3055;50.886;14.814;2022-07-21T13:52:10;33.40;99.90
6054;DHT22;3055;50.886;14.814;2022-07-21T13:54:38;33.80;99.90
6054;DHT22;3055;50.886;14.814;2022-07-21T13:57:06;34.20;99.90
6054;DHT22;3055;50.886;14.814;2022-07-21T13:59:33;34.50;99.90
6054;DHT22;3055;50.886;14.814;2022-07-21T14:02:00;34.70;99.90
6054;DHT22;3055;50.886;14.814;2022-07-21T14:04:27;35.10;99.90
6054;DHT22;3055;50.886;14.814;2022-07-21T14:06:54;35.40;99.90
6054;DHT22;3055;50.886;14.814;2022-07-21T14:09:21;35.80;99.90
6054;DHT22;3055;50.886;14.814;2022-07-21T14:11:49;36.50;99.90
6054;DHT22;3055;50.886;14.814;2022-07-21T14:14:17;36.70;99.90
6054;DHT22;3055;50.886;14.814;2022-07-21T14:16:47;36.70;99.90
6054;DHT22;3055;50.886;14.814;2022-07-21T14:19:15;36.50;99.90
6054;DHT22;3055;50.886;14.814;2022-07-21T14:21:42;36.50;99.90
6054;DHT22;3055;50.886;14.814;2022-07-21T14:24:09;36.40;99.90
6054;DHT22;3055;50.886;14.814;2022-07-21T14:26:53;35.90;99.90
6054;DHT22;3055;50.886;14.814;2022-07-21T14:29:22;35.50;99.90
6054;DHT22;3055;50.886;14.814;2022-07-21T14:31:49;35.20;99.90
6054;DHT22;3055;50.886;14.814;2022-07-21T14:34:16;35.40;99.90
6054;DHT22;3055;50.886;14.814;2022-07-21T14:36:43;35.80;99.90
6054;DHT22;3055;50.886;14.814;2022-07-21T14:39:10;36.50;99.90
6054;DHT22;3055;50.886;14.814;2022-07-21T14:41:37;36.80;99.90
6054;DHT22;3055;50.886;14.814;2022-07-21T14:44:04;36.70;99.90
6054;DHT22;3055;50.886;14.814;2022-07-21T14:46:33;36.50;99.90
6054;DHT22;3055;50.886;14.814;2022-07-21T14:48:59;37.00;99.90
6054;DHT22;3055;50.886;14.814;2022-07-21T14:51:26;36.90;99.90
6054;DHT22;3055;50.886;14.814;2022-07-21T14:53:53;37.20;99.90
6054;DHT22;3055;50.886;14.814;2022-07-21T14:56:20;37.30;99.90
6054;DHT22;3055;50.886;14.814;2022-07-21T14:58:47;37.20;99.90
6054;DHT22;3055;50.886;14.814;2022-07-21T15:01:14;37.00;99.90
6054;DHT22;3055;50.886;14.814;2022-07-21T15:03:43;37.00;99.90
6054;DHT22;3055;50.886;14.814;2022-07-21T15:06:10;36.90;99.90
6054;DHT22;3055;50.886;14.814;2022-07-21T15:08:36;36.50;99.90
6054;DHT22;3055;50.886;14.814;2022-07-21T15:11:03;35.60;99.90
6054;DHT22;3055;50.886;14.814;2022-07-21T15:13:30;34.70;99.90
6054;DHT22;3055;50.886;14.814;2022-07-21T15:15:57;33.70;99.90
6054;DHT22;3055;50.886;14.814;2022-07-21T15:18:24;32.90;99.90
6054;DHT22;3055;50.886;14.814;2022-07-21T15:20:53;32.40;99.90
6054;DHT22;3055;50.886;14.814;2022-07-21T15:23:20;31.90;99.90
6054;DHT22;3055;50.886;14.814;2022-07-21T15:25:47;31.50;99.90
6054;DHT22;3055;50.886;14.814;2022-07-21T15:28:14;31.10;99.90
6054;DHT22;3055;50.886;14.814;2022-07-21T15:30:41;30.80;99.90
6054;DHT22;3055;50.886;14.814;2022-07-21T15:33:08;30.60;99.90
6054;DHT22;3055;50.886;14.814;2022-07-21T15:35:35;30.40;99.90
6054;DHT22;3055;50.886;14.814;2022-07-21T15:38:03;30.20;99.90
6054;DHT22;3055;50.886;14.814;2022-07-21T15:40:31;30.10;99.90
6054;DHT22;3055;50.886;14.814;2022-07-21T15:42:58;30.10;99.90
6054;DHT22;3055;50.886;14.814;2022-07-21T15:45:25;29.90;99.90
6054;DHT22;3055;50.886;14.814;2022-07-21T15:47:52;29.60;99.90
6054;DHT22;3055;50.886;14.814;2022-07-21T15:50:19;29.60;99.90
6054;DHT22;3055;50.886;14.814;2022-07-21T15:52:46;29.70;99.90
6054;DHT22;3055;50.886;14.814;2022-07-21T15:55:14;29.90;99.90
6054;DHT22;3055;50.886;14.814;2022-07-21T15:57:43;29.80;99.90
6054;DHT22;3055;50.886;14.814;2022-07-21T16:00:11;29.70;99.90
6054;DHT22;3055;50.886;14.814;2022-07-21T16:02:39;29.70;99.90
6054;DHT22;3055;50.886;14.814;2022-07-21T16:05:08;29.60;99.90